Newhebron, Mississippi
Current Conditions -  °F | °C
As of 6:35 AM on Thursday 29 Jan 2015 (Local Time) from K1R7 Reporting Station
NA  
Wind Chill: 46°   Ceiling: NA
Heat Index: 46°   Visibility: NA
Dew Point: 46°   Wind: 0mph
Humidity: 100%   Direction: NA
Pressure: 30.22"   Gusts: NA
Location:  31.73°N, 89.98°W
Report Text: K1R7 291235Z AUTO 00000KT 08/08 A3022 RMK AO2
Loading
Personal Weather Stations






























Interactive Weather Map New forecast layout! Learn more

10-Day Weather Forecast

Advertisements
Track Severe Weather on mobile